Time;durP1;ratioP1;P1;durP2;ratioP2;P2;SDS_P1;SDS_P2;PMS_P1;PMS_P2;Temp;Humidity;BMP_temperature;BMP_pressure;BME280_temperature;BME280_humidity;BME280_pressure;Samples;Min_cycle;Max_cycle;Signal;HPM_P1;HPM_P2
2023/03/04 00:01:38;;;;;;;1.30;1.30;;;;;;;;;;4957450;28;20251;-61
2023/03/04 00:04:04;;;;;;;1.50;1.50;;;;;;;;;;4964389;28;20195;-61
2023/03/04 00:06:30;;;;;;;1.40;1.40;;;;;;;;;;4959355;28;20187;-60
2023/03/04 00:08:55;;;;;;;1.50;1.50;;;;;;;;;;4955485;28;20243;-60
2023/03/04 00:11:21;;;;;;;1.27;1.27;;;;;;;;;;4957292;28;20179;-61
2023/03/04 00:13:47;;;;;;;1.30;1.30;;;;;;;;;;4960916;28;20252;-61
2023/03/04 00:16:13;;;;;;;1.10;1.10;;;;;;;;;;4958037;28;20187;-61
2023/03/04 00:18:39;;;;;;;1.37;1.37;;;;;;;;;;4966283;28;20222;-62
2023/03/04 00:21:05;;;;;;;1.13;1.13;;;;;;;;;;4957357;28;20205;-61
2023/03/04 00:23:31;;;;;;;1.30;1.30;;;;;;;;;;4961174;28;20206;-61
2023/03/04 00:25:57;;;;;;;1.10;1.10;;;;;;;;;;4958413;28;20213;-61
2023/03/04 00:28:23;;;;;;;1.30;1.30;;;;;;;;;;4956911;28;20195;-60
2023/03/04 00:30:49;;;;;;;1.40;1.40;;;;;;;;;;4948235;28;20247;-61
2023/03/04 00:33:15;;;;;;;1.40;1.40;;;;;;;;;;4947459;28;20682;-60
2023/03/04 00:35:41;;;;;;;1.33;1.33;;;;;;;;;;4951537;28;21104;-61
2023/03/04 00:38:07;;;;;;;1.10;1.10;;;;;;;;;;4952306;28;20708;-60
2023/03/04 00:40:33;;;;;;;1.30;1.30;;;;;;;;;;4952918;28;20284;-60
2023/03/04 00:42:59;;;;;;;1.33;1.33;;;;;;;;;;4953794;28;20190;-61
2023/03/04 00:45:25;;;;;;;1.20;1.20;;;;;;;;;;4953211;28;20544;-60
2023/03/04 00:47:51;;;;;;;1.20;1.20;;;;;;;;;;4950550;28;20579;-61
2023/03/04 00:50:17;;;;;;;1.40;1.40;;;;;;;;;;4948255;28;20771;-61
2023/03/04 00:52:43;;;;;;;1.30;1.30;;;;;;;;;;4956003;28;20195;-61
2023/03/04 00:55:09;;;;;;;1.33;1.33;;;;;;;;;;4953414;28;20194;-61
2023/03/04 00:57:35;;;;;;;1.27;1.27;;;;;;;;;;4960170;28;20253;-61
2023/03/04 01:00:01;;;;;;;1.10;1.10;;;;;;;;;;4958101;28;20222;-61
2023/03/04 01:02:27;;;;;;;1.40;1.40;;;;;;;;;;4957026;28;20273;-61
2023/03/04 01:04:53;;;;;;;1.50;1.50;;;;;;;;;;4963944;28;20191;-61
2023/03/04 01:07:18;;;;;;;1.30;1.30;;;;;;;;;;4962338;28;20249;-61
2023/03/04 01:09:44;;;;;;;1.43;1.43;;;;;;;;;;4961909;28;20247;-61
2023/03/04 01:12:10;;;;;;;1.33;1.33;;;;;;;;;;4963194;28;20225;-61
2023/03/04 01:14:36;;;;;;;1.57;1.57;;;;;;;;;;4957153;28;20191;-61
2023/03/04 01:17:02;;;;;;;1.50;1.50;;;;;;;;;;4956893;28;20187;-61
2023/03/04 01:19:28;;;;;;;1.50;1.50;;;;;;;;;;4955258;28;20206;-61
2023/03/04 01:21:54;;;;;;;1.87;1.77;;;;;;;;;;4962371;28;20771;-61
2023/03/04 01:24:20;;;;;;;1.40;1.40;;;;;;;;;;4962569;28;20735;-61
2023/03/04 01:26:47;;;;;;;1.23;1.23;;;;;;;;;;4953308;28;20191;-61
2023/03/04 01:29:13;;;;;;;1.10;1.10;;;;;;;;;;4953893;28;20336;-61
2023/03/04 01:31:39;;;;;;;1.27;1.27;;;;;;;;;;4953619;28;20205;-62
2023/03/04 01:34:05;;;;;;;1.20;1.20;;;;;;;;;;4956702;28;20186;-63
2023/03/04 01:36:31;;;;;;;1.37;1.37;;;;;;;;;;4960555;28;20635;-61
2023/03/04 01:38:57;;;;;;;1.30;1.30;;;;;;;;;;4959556;28;20202;-60
2023/03/04 01:41:23;;;;;;;1.30;1.30;;;;;;;;;;4949875;28;20212;-61
2023/03/04 01:43:49;;;;;;;1.23;1.23;;;;;;;;;;4961159;28;20210;-61
2023/03/04 01:46:16;;;;;;;1.20;1.20;;;;;;;;;;4951662;28;20195;-61
2023/03/04 01:48:42;;;;;;;1.37;1.37;;;;;;;;;;4959686;28;20667;-59
2023/03/04 01:51:11;;;;;;;1.30;1.30;;;;;;;;;;4945912;28;20636;-61
2023/03/04 01:53:37;;;;;;;1.57;1.57;;;;;;;;;;4960020;28;20179;-60
2023/03/04 01:56:10;;;;;;;1.37;1.37;;;;;;;;;;4952169;28;20192;-61
2023/03/04 01:58:36;;;;;;;1.40;1.40;;;;;;;;;;4943306;28;20281;-60
2023/03/04 02:01:02;;;;;;;1.40;1.40;;;;;;;;;;4952329;28;20226;-60
2023/03/04 02:03:28;;;;;;;1.20;1.20;;;;;;;;;;4949960;28;20199;-61
2023/03/04 02:05:54;;;;;;;1.20;1.20;;;;;;;;;;4953245;28;20651;-61
2023/03/04 02:08:21;;;;;;;1.40;1.40;;;;;;;;;;4950151;28;20369;-60
2023/03/04 02:10:47;;;;;;;1.27;1.27;;;;;;;;;;4950804;28;20234;-61
2023/03/04 02:13:13;;;;;;;1.23;1.23;;;;;;;;;;4971353;28;20221;-60
2023/03/04 02:15:39;;;;;;;1.50;1.50;;;;;;;;;;4952126;28;20222;-61
2023/03/04 02:18:10;;;;;;;1.30;1.30;;;;;;;;;;4956820;28;20259;-62
2023/03/04 02:20:43;;;;;;;1.40;1.40;;;;;;;;;;4957611;28;20202;-60
2023/03/04 02:23:12;;;;;;;1.40;1.40;;;;;;;;;;4956482;28;20569;-60
2023/03/04 02:25:42;;;;;;;1.40;1.40;;;;;;;;;;4953086;28;20195;-60
2023/03/04 02:28:08;;;;;;;1.43;1.43;;;;;;;;;;4962330;28;20208;-61
2023/03/04 02:30:34;;;;;;;1.47;1.47;;;;;;;;;;4952834;28;20305;-60
2023/03/04 02:33:00;;;;;;;1.33;1.33;;;;;;;;;;4963447;28;20215;-60
2023/03/04 02:35:26;;;;;;;1.40;1.40;;;;;;;;;;4958185;28;20189;-60
2023/03/04 02:37:52;;;;;;;1.40;1.40;;;;;;;;;;4959500;28;20191;-61
2023/03/04 02:40:23;;;;;;;1.53;1.53;;;;;;;;;;4961905;28;20605;-60
2023/03/04 02:42:49;;;;;;;1.23;1.23;;;;;;;;;;4960863;28;20280;-60
2023/03/04 02:45:32;;;;;;;1.40;1.40;;;;;;;;;;4958415;28;21190;-61
2023/03/04 02:47:58;;;;;;;1.20;1.20;;;;;;;;;;4958521;28;20245;-61
2023/03/04 02:50:24;;;;;;;1.20;1.20;;;;;;;;;;4961550;28;20739;-60
2023/03/04 02:52:50;;;;;;;1.37;1.37;;;;;;;;;;4957612;28;20198;-60
2023/03/04 02:55:16;;;;;;;1.50;1.50;;;;;;;;;;4964071;28;20191;-61
2023/03/04 02:57:42;;;;;;;1.20;1.20;;;;;;;;;;4962590;28;20187;-61
2023/03/04 03:00:08;;;;;;;1.10;1.10;;;;;;;;;;4962718;28;20684;-60
2023/03/04 03:02:34;;;;;;;1.20;1.20;;;;;;;;;;4960747;28;20246;-60
2023/03/04 03:05:00;;;;;;;1.23;1.23;;;;;;;;;;4951242;28;20199;-60
2023/03/04 03:07:26;;;;;;;1.20;1.20;;;;;;;;;;4942435;28;20201;-60
2023/03/04 03:09:52;;;;;;;1.30;1.30;;;;;;;;;;4948925;28;20238;-60
2023/03/04 03:12:17;;;;;;;1.30;1.30;;;;;;;;;;4942609;28;20210;-60
2023/03/04 03:14:43;;;;;;;1.43;1.43;;;;;;;;;;4941454;28;20554;-61
2023/03/04 03:17:09;;;;;;;1.50;1.50;;;;;;;;;;4950903;28;20730;-61
2023/03/04 03:19:35;;;;;;;1.30;1.30;;;;;;;;;;4960032;28;20689;-63
2023/03/04 03:22:01;;;;;;;1.40;1.40;;;;;;;;;;4959578;28;20205;-60
2023/03/04 03:24:27;;;;;;;1.40;1.40;;;;;;;;;;4962388;28;20197;-61
2023/03/04 03:26:53;;;;;;;1.50;1.50;;;;;;;;;;4958581;28;20187;-61
2023/03/04 03:29:19;;;;;;;1.93;1.83;;;;;;;;;;4960413;28;20210;-60
2023/03/04 03:31:45;;;;;;;1.70;1.70;;;;;;;;;;4955055;28;20242;-61
2023/03/04 03:34:11;;;;;;;2.00;1.90;;;;;;;;;;4957248;28;20825;-60
2023/03/04 03:36:37;;;;;;;1.50;1.50;;;;;;;;;;4963041;28;20194;-60
2023/03/04 03:39:03;;;;;;;1.50;1.50;;;;;;;;;;4958917;28;20198;-60
2023/03/04 03:41:29;;;;;;;1.43;1.43;;;;;;;;;;4952021;28;20427;-59
2023/03/04 03:43:55;;;;;;;1.50;1.50;;;;;;;;;;4960146;28;20789;-61
2023/03/04 03:46:21;;;;;;;1.30;1.30;;;;;;;;;;4958311;28;20270;-60
2023/03/04 03:48:47;;;;;;;1.30;1.30;;;;;;;;;;4961522;28;20190;-61
2023/03/04 03:51:13;;;;;;;1.30;1.30;;;;;;;;;;4960486;28;20253;-60
2023/03/04 03:53:39;;;;;;;1.20;1.20;;;;;;;;;;4963133;28;20187;-62
2023/03/04 03:56:05;;;;;;;1.40;1.40;;;;;;;;;;4959407;28;20191;-60
2023/03/04 03:58:31;;;;;;;1.47;1.47;;;;;;;;;;4962243;28;20554;-60
2023/03/04 04:00:57;;;;;;;1.30;1.30;;;;;;;;;;4955018;28;20251;-62
2023/03/04 04:03:23;;;;;;;1.37;1.37;;;;;;;;;;4962259;28;20229;-61
2023/03/04 04:05:49;;;;;;;1.30;1.30;;;;;;;;;;4957808;28;20222;-61
2023/03/04 04:08:16;;;;;;;1.40;1.40;;;;;;;;;;4960544;28;20201;-63
2023/03/04 04:10:42;;;;;;;1.50;1.50;;;;;;;;;;4951774;28;20247;-61
2023/03/04 04:13:08;;;;;;;1.10;1.10;;;;;;;;;;4956466;28;20652;-60
2023/03/04 04:15:33;;;;;;;1.30;1.30;;;;;;;;;;4954262;28;20191;-61
2023/03/04 04:17:59;;;;;;;1.40;1.40;;;;;;;;;;4958791;28;20201;-60
2023/03/04 04:20:25;;;;;;;1.47;1.47;;;;;;;;;;4959241;28;20198;-60
2023/03/04 04:22:51;;;;;;;1.27;1.27;;;;;;;;;;4964309;28;20190;-61
2023/03/04 04:25:17;;;;;;;1.43;1.43;;;;;;;;;;4960933;28;20194;-61
2023/03/04 04:27:43;;;;;;;1.50;1.50;;;;;;;;;;4961524;28;20564;-61
2023/03/04 04:30:10;;;;;;;1.50;1.50;;;;;;;;;;4957464;28;20207;-61
2023/03/04 04:32:36;;;;;;;1.60;1.60;;;;;;;;;;4957677;28;20287;-61
2023/03/04 04:35:02;;;;;;;1.20;1.20;;;;;;;;;;4960451;28;20189;-61
2023/03/04 04:37:28;;;;;;;1.20;1.20;;;;;;;;;;4957731;28;20193;-59
2023/03/04 04:39:54;;;;;;;1.37;1.37;;;;;;;;;;4956077;28;20681;-61
2023/03/04 04:42:20;;;;;;;1.40;1.40;;;;;;;;;;4959110;28;20191;-61
2023/03/04 04:44:46;;;;;;;1.23;1.23;;;;;;;;;;4962477;28;20198;-60
2023/03/04 04:47:12;;;;;;;1.33;1.33;;;;;;;;;;4972366;28;20191;-61
2023/03/04 04:49:38;;;;;;;1.10;1.10;;;;;;;;;;4961770;28;20276;-61
2023/03/04 04:52:04;;;;;;;1.40;1.40;;;;;;;;;;4962085;28;20190;-60
2023/03/04 04:54:30;;;;;;;1.13;1.13;;;;;;;;;;4960258;28;20201;-59
2023/03/04 04:56:56;;;;;;;1.33;1.33;;;;;;;;;;4960492;28;20724;-61
2023/03/04 04:59:22;;;;;;;1.23;1.23;;;;;;;;;;4961915;28;20395;-60
2023/03/04 05:01:48;;;;;;;1.30;1.30;;;;;;;;;;4962640;28;20241;-60
2023/03/04 05:04:14;;;;;;;1.20;1.20;;;;;;;;;;4965266;28;20201;-61
2023/03/04 05:06:40;;;;;;;1.63;1.63;;;;;;;;;;4960908;28;20241;-61
2023/03/04 05:09:06;;;;;;;1.60;1.60;;;;;;;;;;4961169;28;20222;-60
2023/03/04 05:11:32;;;;;;;1.50;1.50;;;;;;;;;;4961469;28;20192;-60
2023/03/04 05:13:58;;;;;;;1.43;1.43;;;;;;;;;;4958467;28;20187;-60
2023/03/04 05:16:23;;;;;;;1.50;1.50;;;;;;;;;;4960790;28;20289;-60
2023/03/04 05:18:49;;;;;;;1.40;1.40;;;;;;;;;;4954643;28;20212;-61
2023/03/04 05:21:15;;;;;;;1.20;1.20;;;;;;;;;;4955313;28;20273;-60
2023/03/04 05:23:42;;;;;;;1.20;1.20;;;;;;;;;;4958739;28;20247;-60
2023/03/04 05:26:08;;;;;;;1.20;1.20;;;;;;;;;;4962254;28;20201;-60
2023/03/04 05:28:34;;;;;;;1.20;1.20;;;;;;;;;;4962522;28;20706;-61
2023/03/04 05:31:00;;;;;;;1.30;1.30;;;;;;;;;;4953934;28;20219;-60
2023/03/04 05:33:26;;;;;;;1.13;1.13;;;;;;;;;;4961191;28;20198;-61
2023/03/04 05:35:53;;;;;;;1.10;1.10;;;;;;;;;;4955268;28;21958;-61
2023/03/04 05:38:19;;;;;;;1.23;1.23;;;;;;;;;;4962102;28;20561;-61
2023/03/04 05:40:45;;;;;;;1.33;1.33;;;;;;;;;;4950288;28;20250;-60
2023/03/04 05:43:11;;;;;;;1.40;1.40;;;;;;;;;;4957843;28;20205;-61
2023/03/04 05:45:38;;;;;;;1.20;1.20;;;;;;;;;;4958024;28;20193;-61
2023/03/04 05:48:04;;;;;;;1.30;1.30;;;;;;;;;;4961545;28;20669;-60
2023/03/04 05:50:30;;;;;;;1.27;1.27;;;;;;;;;;4957368;28;20227;-60
2023/03/04 05:52:56;;;;;;;1.37;1.37;;;;;;;;;;4955709;28;20659;-61
2023/03/04 05:55:22;;;;;;;1.20;1.20;;;;;;;;;;4957684;28;20916;-61
2023/03/04 05:57:47;;;;;;;1.40;1.40;;;;;;;;;;4949194;28;20550;-60
2023/03/04 06:00:14;;;;;;;1.47;1.47;;;;;;;;;;4956828;28;20203;-60
2023/03/04 06:02:40;;;;;;;1.27;1.27;;;;;;;;;;4956014;28;20304;-60
2023/03/04 06:05:06;;;;;;;1.20;1.20;;;;;;;;;;4957506;28;20198;-61
2023/03/04 06:07:32;;;;;;;1.23;1.23;;;;;;;;;;4959786;28;20243;-60
2023/03/04 06:09:58;;;;;;;1.20;1.20;;;;;;;;;;4954231;28;20699;-60
2023/03/04 06:12:24;;;;;;;1.30;1.30;;;;;;;;;;4956046;28;20197;-61
2023/03/04 06:14:50;;;;;;;1.20;1.20;;;;;;;;;;4950754;28;20276;-60
2023/03/04 06:17:16;;;;;;;1.30;1.30;;;;;;;;;;4952785;28;20186;-60
2023/03/04 06:19:42;;;;;;;1.40;1.40;;;;;;;;;;4959545;28;20572;-61
2023/03/04 06:22:08;;;;;;;1.50;1.50;;;;;;;;;;4956016;28;20660;-60
2023/03/04 06:24:34;;;;;;;1.23;1.23;;;;;;;;;;4960517;28;20205;-60
2023/03/04 06:27:00;;;;;;;1.30;1.30;;;;;;;;;;4959810;28;20655;-60
2023/03/04 06:29:26;;;;;;;1.30;1.30;;;;;;;;;;4956330;28;20720;-60
2023/03/04 06:31:52;;;;;;;1.33;1.33;;;;;;;;;;4955751;28;20188;-61
2023/03/04 06:34:18;;;;;;;1.23;1.23;;;;;;;;;;4961366;28;20212;-61
2023/03/04 06:36:44;;;;;;;1.30;1.30;;;;;;;;;;4959631;28;20251;-62
2023/03/04 06:39:10;;;;;;;1.30;1.30;;;;;;;;;;4961239;28;20198;-61
2023/03/04 06:41:37;;;;;;;1.30;1.30;;;;;;;;;;4971333;28;20254;-60
2023/03/04 06:44:03;;;;;;;1.20;1.20;;;;;;;;;;4959288;28;20201;-61
2023/03/04 06:46:29;;;;;;;1.30;1.30;;;;;;;;;;4957238;28;20193;-60
2023/03/04 06:48:55;;;;;;;1.27;1.27;;;;;;;;;;4959708;28;20534;-61
2023/03/04 06:51:20;;;;;;;1.20;1.20;;;;;;;;;;4937217;28;20563;-60
2023/03/04 06:53:46;;;;;;;1.10;1.10;;;;;;;;;;4937959;28;20606;-60
2023/03/04 06:56:15;;;;;;;1.20;1.20;;;;;;;;;;4949411;28;20675;-61
2023/03/04 06:58:41;;;;;;;1.20;1.20;;;;;;;;;;4945925;28;20198;-61
2023/03/04 07:01:13;;;;;;;1.10;1.10;;;;;;;;;;4948769;28;20238;-60
2023/03/04 07:03:39;;;;;;;1.10;1.10;;;;;;;;;;4948491;28;20230;-60
2023/03/04 07:06:07;;;;;;;1.10;1.10;;;;;;;;;;4952506;28;20212;-60
2023/03/04 07:08:33;;;;;;;1.03;1.03;;;;;;;;;;4954962;28;20523;-60
2023/03/04 07:10:59;;;;;;;1.33;1.33;;;;;;;;;;4948161;28;21023;-62
2023/03/04 07:13:25;;;;;;;1.10;1.10;;;;;;;;;;4948392;28;20191;-61
2023/03/04 07:15:51;;;;;;;1.20;1.20;;;;;;;;;;4954827;28;20195;-60
2023/03/04 07:18:17;;;;;;;1.10;1.10;;;;;;;;;;4964930;28;20201;-61
2023/03/04 07:20:43;;;;;;;1.00;1.00;;;;;;;;;;4950551;28;20277;-61
2023/03/04 07:23:09;;;;;;;1.00;1.00;;;;;;;;;;4961340;28;20258;-61
2023/03/04 07:25:35;;;;;;;1.17;1.17;;;;;;;;;;4965488;28;20624;-61
2023/03/04 07:28:01;;;;;;;1.10;1.10;;;;;;;;;;4958780;28;20187;-60
2023/03/04 07:30:27;;;;;;;0.90;0.90;;;;;;;;;;4956581;28;20241;-60
2023/03/04 07:32:53;;;;;;;1.00;1.00;;;;;;;;;;4956159;28;20591;-59
2023/03/04 07:35:19;;;;;;;1.00;1.00;;;;;;;;;;4954362;28;20202;-61
2023/03/04 07:37:45;;;;;;;1.03;1.03;;;;;;;;;;4960701;28;20238;-60
2023/03/04 07:40:11;;;;;;;1.10;1.10;;;;;;;;;;4966497;28;20205;-60
2023/03/04 07:42:37;;;;;;;1.10;1.10;;;;;;;;;;4943739;28;20207;-60
2023/03/04 07:45:04;;;;;;;1.03;1.03;;;;;;;;;;4950297;28;20572;-60
2023/03/04 07:47:30;;;;;;;1.10;1.10;;;;;;;;;;4946867;28;20297;-60
2023/03/04 07:49:56;;;;;;;1.10;1.10;;;;;;;;;;4950234;28;20222;-59
2023/03/04 07:52:22;;;;;;;0.93;0.93;;;;;;;;;;4948739;28;20320;-60
2023/03/04 07:54:48;;;;;;;1.00;1.00;;;;;;;;;;4951604;28;20222;-60
2023/03/04 07:57:14;;;;;;;1.00;1.00;;;;;;;;;;4956528;28;20541;-60
2023/03/04 07:59:40;;;;;;;1.00;1.00;;;;;;;;;;4951562;28;20194;-60
2023/03/04 08:02:06;;;;;;;1.00;1.00;;;;;;;;;;4950273;28;20302;-61
2023/03/04 08:04:32;;;;;;;1.00;1.00;;;;;;;;;;4958565;28;20277;-62
2023/03/04 08:06:58;;;;;;;1.00;1.00;;;;;;;;;;4953534;28;20187;-61
2023/03/04 08:09:24;;;;;;;0.80;0.80;;;;;;;;;;4954775;28;20340;-62
2023/03/04 08:11:50;;;;;;;0.90;0.90;;;;;;;;;;4936948;28;20633;-61
2023/03/04 08:14:16;;;;;;;1.13;1.13;;;;;;;;;;4929435;28;20203;-60
2023/03/04 08:16:42;;;;;;;0.93;0.93;;;;;;;;;;4945911;28;20945;-61
2023/03/04 08:19:08;;;;;;;1.00;1.00;;;;;;;;;;4961564;28;20190;-61
2023/03/04 08:21:34;;;;;;;0.80;0.80;;;;;;;;;;4953615;28;20189;-60
2023/03/04 08:24:02;;;;;;;0.83;0.83;;;;;;;;;;4958429;28;20225;-60
2023/03/04 08:26:30;;;;;;;1.03;1.03;;;;;;;;;;4957927;28;20218;-60
2023/03/04 08:28:56;;;;;;;1.10;1.10;;;;;;;;;;4958214;28;20202;-61
2023/03/04 08:31:22;;;;;;;0.90;0.90;;;;;;;;;;4956716;28;20190;-61
2023/03/04 08:33:48;;;;;;;1.00;1.00;;;;;;;;;;4965856;28;20557;-61
2023/03/04 08:36:14;;;;;;;0.93;0.93;;;;;;;;;;4958616;28;20193;-61
2023/03/04 08:38:40;;;;;;;0.90;0.90;;;;;;;;;;4956928;28;20202;-62
2023/03/04 08:41:06;;;;;;;0.90;0.90;;;;;;;;;;4959042;28;20580;-61
2023/03/04 08:43:32;;;;;;;1.00;1.00;;;;;;;;;;4962234;28;20644;-60
2023/03/04 08:45:58;;;;;;;1.17;1.17;;;;;;;;;;4960443;28;25938;-61
2023/03/04 08:48:24;;;;;;;0.90;0.90;;;;;;;;;;4962250;28;20293;-62
2023/03/04 08:50:50;;;;;;;1.00;1.00;;;;;;;;;;4960988;28;20316;-61
2023/03/04 08:53:16;;;;;;;1.10;1.10;;;;;;;;;;4963612;28;20190;-65
2023/03/04 08:55:42;;;;;;;1.00;1.00;;;;;;;;;;4962397;28;20790;-65
2023/03/04 08:58:08;;;;;;;0.80;0.80;;;;;;;;;;4952861;28;20696;-60
2023/03/04 09:00:34;;;;;;;1.00;1.00;;;;;;;;;;4958458;28;20246;-60
2023/03/04 09:03:00;;;;;;;0.90;0.90;;;;;;;;;;4958947;28;20622;-60
2023/03/04 09:05:26;;;;;;;1.10;1.10;;;;;;;;;;4943669;28;20575;-60
2023/03/04 09:07:53;;;;;;;0.80;0.80;;;;;;;;;;4964706;28;20198;-60
2023/03/04 09:10:19;;;;;;;1.00;1.00;;;;;;;;;;4961155;28;20222;-60
2023/03/04 09:12:45;;;;;;;1.20;1.20;;;;;;;;;;4943501;28;21491;-60
2023/03/04 09:15:11;;;;;;;1.13;1.13;;;;;;;;;;4937140;28;20269;-60
2023/03/04 09:17:37;;;;;;;1.10;1.10;;;;;;;;;;4945147;28;20626;-60
2023/03/04 09:20:03;;;;;;;1.00;1.00;;;;;;;;;;4954104;28;20251;-60
2023/03/04 09:22:29;;;;;;;1.00;1.00;;;;;;;;;;4952997;28;20366;-57
2023/03/04 09:24:55;;;;;;;1.20;1.20;;;;;;;;;;4959132;28;20756;-62
2023/03/04 09:27:21;;;;;;;1.10;1.10;;;;;;;;;;4954707;28;20638;-61
2023/03/04 09:29:48;;;;;;;1.20;1.20;;;;;;;;;;4956504;28;20207;-62
2023/03/04 09:32:14;;;;;;;0.90;0.90;;;;;;;;;;4954091;28;20199;-62
2023/03/04 09:34:40;;;;;;;0.90;0.90;;;;;;;;;;4946731;28;20194;-61
2023/03/04 09:37:06;;;;;;;1.00;1.00;;;;;;;;;;4941212;28;20191;-61
2023/03/04 09:39:32;;;;;;;0.90;0.90;;;;;;;;;;4929938;28;20973;-63
2023/03/04 09:41:58;;;;;;;1.00;1.00;;;;;;;;;;4951124;28;20198;-61
2023/03/04 09:44:31;;;;;;;1.00;1.00;;;;;;;;;;4947526;28;20210;-61
2023/03/04 09:46:58;;;;;;;1.13;1.13;;;;;;;;;;4943612;28;20198;-61
2023/03/04 09:49:24;;;;;;;0.90;0.90;;;;;;;;;;4946549;28;20225;-61
2023/03/04 09:51:59;;;;;;;0.90;0.90;;;;;;;;;;4948068;28;20199;-62
2023/03/04 09:54:31;;;;;;;1.20;1.20;;;;;;;;;;4948215;28;20182;-61
2023/03/04 09:56:58;;;;;;;1.20;1.20;;;;;;;;;;4946418;28;20237;-61
2023/03/04 09:59:50;;;;;;;1.20;1.20;;;;;;;;;;4941017;28;20191;-60
2023/03/04 10:02:29;;;;;;;1.10;1.10;;;;;;;;;;4935472;28;20238;-60
2023/03/04 10:04:55;;;;;;;1.00;1.00;;;;;;;;;;4942326;28;20580;-59
2023/03/04 10:07:26;;;;;;;1.10;1.10;;;;;;;;;;4952387;28;20250;-61
2023/03/04 10:09:56;;;;;;;1.30;1.30;;;;;;;;;;4956882;28;20688;-60
2023/03/04 10:12:24;;;;;;;1.13;1.13;;;;;;;;;;4942344;28;20191;-60
2023/03/04 10:15:13;;;;;;;1.20;1.20;;;;;;;;;;4941579;28;20195;-60
2023/03/04 10:17:42;;;;;;;1.20;1.20;;;;;;;;;;4933557;28;20257;-60
2023/03/04 10:20:12;;;;;;;1.30;1.30;;;;;;;;;;4946999;28;20538;-60
2023/03/04 10:22:41;;;;;;;1.30;1.30;;;;;;;;;;4956552;28;20187;-60
2023/03/04 10:25:33;;;;;;;1.20;1.20;;;;;;;;;;4956325;28;20261;-59
2023/03/04 10:28:01;;;;;;;1.30;1.30;;;;;;;;;;4954177;28;20206;-60
2023/03/04 10:30:30;;;;;;;1.60;1.60;;;;;;;;;;4947580;28;20302;-61
2023/03/04 10:32:56;;;;;;;1.20;1.20;;;;;;;;;;4956631;28;20274;-61
2023/03/04 10:35:22;;;;;;;1.60;1.60;;;;;;;;;;4944786;28;20190;-60
2023/03/04 10:37:49;;;;;;;2.30;2.20;;;;;;;;;;4946020;28;20610;-60
2023/03/04 10:40:19;;;;;;;2.20;2.10;;;;;;;;;;4937998;28;20232;-61
2023/03/04 10:42:45;;;;;;;2.30;2.20;;;;;;;;;;4940666;28;20202;-61
2023/03/04 10:45:19;;;;;;;1.60;1.60;;;;;;;;;;4953270;28;21376;-60
2023/03/04 10:47:48;;;;;;;1.40;1.40;;;;;;;;;;4960400;28;20736;-60
2023/03/04 10:50:20;;;;;;;1.53;1.53;;;;;;;;;;4946659;28;20460;-60
2023/03/04 10:52:48;;;;;;;1.50;1.50;;;;;;;;;;4950803;28;20915;-58
2023/03/04 10:55:34;;;;;;;1.53;1.53;;;;;;;;;;4954867;28;20199;-60
2023/03/04 10:58:02;;;;;;;1.50;1.50;;;;;;;;;;4942093;28;20428;-60
2023/03/04 11:00:32;;;;;;;1.30;1.30;;;;;;;;;;4958251;28;20206;-60
2023/03/04 11:03:17;;;;;;;1.60;1.60;;;;;;;;;;4963382;28;20231;-61
2023/03/04 11:05:43;;;;;;;1.87;1.77;;;;;;;;;;4957680;28;20195;-61
2023/03/04 11:08:09;;;;;;;;;;;;;;;;;;4961855;28;20049;-60
2023/03/04 11:10:35;;;;;;;;;;;;;;;;;;4956627;28;19918;-61
2023/03/04 11:13:01;;;;;;;;;;;;;;;;;;4955350;28;19909;-61
2023/03/04 11:15:27;;;;;;;;;;;;;;;;;;4957807;28;19944;-61
2023/03/04 11:17:53;;;;;;;;;;;;;;;;;;4962881;28;19910;-61
2023/03/04 11:20:19;;;;;;;;;;;;;;;;;;4958180;28;19960;-60
2023/03/04 11:22:45;;;;;;;;;;;;;;;;;;4958989;28;20189;-60
2023/03/04 11:25:11;;;;;;;;;;;;;;;;;;4954199;28;19918;-60
2023/03/04 11:27:36;;;;;;;;;;;;;;;;;;4954193;28;19953;-60
2023/03/04 11:30:02;;;;;;;;;;;;;;;;;;4949408;28;20391;-60
2023/03/04 11:32:28;;;;;;;;;;;;;;;;;;4949872;28;20044;-60
2023/03/04 11:34:54;;;;;;;;;;;;;;;;;;4952333;28;19914;-61
2023/03/04 11:37:20;;;;;;;;;;;;;;;;;;4951048;28;20416;-60
2023/03/04 11:39:46;;;;;;;;;;;;;;;;;;4960974;28;19960;-60
2023/03/04 11:42:12;;;;;;;;;;;;;;;;;;4958433;28;19918;-61
2023/03/04 11:44:40;;;;;;;;;;;;;;;;;;4957863;28;19925;-61
2023/03/04 11:47:06;;;;;;;;;;;;;;;;;;4953336;28;19914;-60
2023/03/04 11:49:32;;;;;;;;;;;;;;;;;;4952170;28;20382;-60
2023/03/04 11:51:57;;;;;;;;;;;;;;;;;;4950095;28;19914;-60
2023/03/04 11:54:23;;;;;;;;;;;;;;;;;;4958014;28;20381;-61
2023/03/04 11:56:49;;;;;;;;;;;;;;;;;;4952831;28;19941;-60
2023/03/04 11:59:15;;;;;;;;;;;;;;;;;;4959841;28;20337;-60
2023/03/04 12:01:41;;;;;;;;;;;;;;;;;;4945319;28;19926;-61
2023/03/04 12:04:07;;;;;;;;;;;;;;;;;;4957614;28;19911;-60
2023/03/04 12:06:33;;;;;;;;;;;;;;;;;;4950655;28;19918;-60
2023/03/04 12:08:59;;;;;;;;;;;;;;;;;;4958274;28;19931;-60
2023/03/04 12:11:25;;;;;;;;;;;;;;;;;;4948576;28;19959;-61
2023/03/04 12:13:51;;;;;;;;;;;;;;;;;;4946201;28;19921;-60
2023/03/04 12:16:16;;;;;;;;;;;;;;;;;;4945278;28;19929;-61
2023/03/04 12:18:42;;;;;;;;;;;;;;;;;;4960773;28;20242;-60
2023/03/04 12:21:08;;;;;;;;;;;;;;;;;;4957492;28;19964;-61
2023/03/04 12:23:34;;;;;;;;;;;;;;;;;;4958158;28;20055;-62
2023/03/04 12:26:00;;;;;;;;;;;;;;;;;;4953727;28;19914;-60
2023/03/04 12:28:26;;;;;;;;;;;;;;;;;;4955159;28;20392;-61
2023/03/04 12:30:52;;;;;;;;;;;;;;;;;;4948536;28;19953;-61
2023/03/04 12:33:19;;;;;;;;;;;;;;;;;;4949898;28;19996;-62
2023/03/04 12:35:45;;;;;;;;;;;;;;;;;;4956866;28;19919;-60
2023/03/04 12:38:11;;;;;;;;;;;;;;;;;;4937433;28;19917;-61
2023/03/04 12:40:37;;;;;;;;;;;;;;;;;;4946230;28;19917;-63
2023/03/04 12:43:02;;;;;;;;;;;;;;;;;;4947556;28;19914;-63
2023/03/04 12:45:28;;;;;;;;;;;;;;;;;;4949473;28;20044;-64
2023/03/04 12:47:54;;;;;;;;;;;;;;;;;;4955652;28;19910;-60
2023/03/04 12:50:20;;;;;;;;;;;;;;;;;;4955168;28;19918;-56
2023/03/04 12:52:46;;;;;;;;;;;;;;;;;;4954133;28;20025;-54
2023/03/04 12:55:12;;;;;;;;;;;;;;;;;;4951358;28;20496;-60
2023/03/04 12:57:39;;;;;;;;;;;;;;;;;;4949665;28;19922;-61
2023/03/04 13:00:05;;;;;;;;;;;;;;;;;;4952355;28;20283;-61
2023/03/04 13:02:31;;;;;;;;;;;;;;;;;;4950873;28;19918;-62
2023/03/04 13:04:57;;;;;;;;;;;;;;;;;;4957291;28;19916;-61
2023/03/04 13:07:23;;;;;;;;;;;;;;;;;;4940743;28;19914;-58
2023/03/04 13:09:49;;;;;;;;;;;;;;;;;;4952230;28;19945;-62
2023/03/04 13:12:15;;;;;;;;;;;;;;;;;;4955454;28;19909;-62
2023/03/04 13:14:41;;;;;;;;;;;;;;;;;;4949510;28;19925;-61
2023/03/04 13:17:07;;;;;;;;;;;;;;;;;;4950723;28;20306;-61
2023/03/04 13:19:33;;;;;;;;;;;;;;;;;;4952606;28;19925;-61
2023/03/04 13:21:59;;;;;;;;;;;;;;;;;;4950937;28;19918;-61
2023/03/04 13:24:25;;;;;;;;;;;;;;;;;;4945212;28;19917;-58
2023/03/04 13:26:50;;;;;;;;;;;;;;;;;;4949280;28;20311;-61
2023/03/04 13:29:16;;;;;;;;;;;;;;;;;;4949701;28;19914;-58
2023/03/04 13:31:42;;;;;;;;;;;;;;;;;;4929887;28;19950;-61
2023/03/04 13:34:08;;;;;;;;;;;;;;;;;;4929597;28;19918;-61
2023/03/04 13:36:34;;;;;;;;;;;;;;;;;;4939075;28;19917;-59
2023/03/04 13:39:00;;;;;;;;;;;;;;;;;;4926119;28;20504;-60
2023/03/04 13:41:26;;;;;;;;;;;;;;;;;;4929996;28;20466;-61
2023/03/04 13:43:52;;;;;;;;;;;;;;;;;;4923320;28;20422;-62
2023/03/04 13:46:22;;;;;;;;;;;;;;;;;;4936331;28;22195;-60
2023/03/04 13:48:48;;;;;;;;;;;;;;;;;;4942301;28;20477;-60
2023/03/04 13:51:14;;;;;;;;;;;;;;;;;;4937478;28;19961;-62
2023/03/04 13:53:40;;;;;;;;;;;;;;;;;;4928636;28;20383;-62
2023/03/04 13:56:06;;;;;;;;;;;;;;;;;;4946021;28;19928;-62
2023/03/04 13:58:32;;;;;;;;;;;;;;;;;;4942448;28;19910;-61
2023/03/04 14:00:57;;;;;;;;;;;;;;;;;;4938388;28;20217;-62
2023/03/04 14:03:23;;;;;;;;;;;;;;;;;;4951546;28;20414;-62
2023/03/04 14:05:49;;;;;;;;;;;;;;;;;;4954942;28;21083;-64
2023/03/04 14:08:19;;;;;;;1.80;1.70;;;;;;;;;;4953449;28;20546;-61
2023/03/04 14:10:53;;;;;;;1.90;1.80;;;;;;;;;;4940124;28;20219;-62
2023/03/04 14:13:19;;;;;;;1.60;1.60;;;;;;;;;;4954557;28;20631;-61
2023/03/04 14:15:53;;;;;;;1.90;1.80;;;;;;;;;;4952321;28;20205;-61
2023/03/04 14:18:19;;;;;;;1.50;1.50;;;;;;;;;;4952712;28;20195;-62
2023/03/04 14:20:51;;;;;;;1.57;1.57;;;;;;;;;;4951929;28;20198;-61
2023/03/04 14:23:24;;;;;;;1.50;1.50;;;;;;;;;;4954244;28;21661;-61
2023/03/04 14:25:50;;;;;;;1.60;1.60;;;;;;;;;;4958875;28;20183;-61
2023/03/04 14:28:16;;;;;;;1.70;1.70;;;;;;;;;;4963735;28;20206;-61
2023/03/04 14:30:43;;;;;;;1.80;1.70;;;;;;;;;;4954671;28;20289;-61
2023/03/04 14:33:11;;;;;;;1.60;1.60;;;;;;;;;;4950504;28;20203;-60
2023/03/04 14:35:37;;;;;;;2.20;2.10;;;;;;;;;;4957195;28;20194;-63
2023/03/04 14:38:07;;;;;;;1.67;1.67;;;;;;;;;;4958891;28;20274;-62
2023/03/04 14:40:38;;;;;;;1.90;1.80;;;;;;;;;;4957902;28;20632;-61
2023/03/04 14:43:06;;;;;;;1.97;1.87;;;;;;;;;;4948265;28;20361;-61
2023/03/04 14:45:32;;;;;;;1.73;1.67;;;;;;;;;;4955084;28;20569;-61
2023/03/04 14:48:04;;;;;;;1.83;1.73;;;;;;;;;;4958718;28;20205;-62
2023/03/04 14:50:30;;;;;;;1.90;1.80;;;;;;;;;;4952557;28;20270;-61
2023/03/04 14:53:08;;;;;;;1.60;1.60;;;;;;;;;;4958605;28;20194;-62
2023/03/04 14:55:34;;;;;;;2.00;1.90;;;;;;;;;;4948947;28;20651;-61
2023/03/04 14:58:07;;;;;;;1.90;1.80;;;;;;;;;;4939439;28;20278;-63
2023/03/04 15:00:34;;;;;;;1.60;1.60;;;;;;;;;;4948955;28;20290;-62
2023/03/04 15:03:03;;;;;;;1.60;1.60;;;;;;;;;;4956934;28;20563;-65